Time;durP1;ratioP1;P1;durP2;ratioP2;P2;SDS_P1;SDS_P2;PMS_P1;PMS_P2;Temp;Humidity;BMP_temperature;BMP_pressure;BME280_temperature;BME280_humidity;BME280_pressure;Samples;Min_cycle;Max_cycle;Signal;HPM_P1;HPM_P2
2022/05/01 04:00:58;;;;;;;20.80;11.75;;;4.00;99.90;;;;;;5701944;23;20043;-81
2022/05/01 04:03:24;;;;;;;22.15;12.18;;;4.00;99.90;;;;;;4939969;29;20047;-81
2022/05/01 04:05:49;;;;;;;19.83;11.38;;;3.90;99.90;;;;;;4939672;29;20398;-82
2022/05/01 04:08:15;;;;;;;17.90;11.35;;;3.90;99.90;;;;;;4940537;29;20051;-83
2022/05/01 04:10:43;;;;;;;21.65;11.65;;;3.90;99.90;;;;;;4957449;29;20118;-82
2022/05/01 04:13:11;;;;;;;19.77;12.25;;;3.90;99.90;;;;;;4939986;29;20051;-82
2022/05/01 04:15:37;;;;;;;18.65;11.35;;;3.90;99.90;;;;;;4957477;29;20047;-81
2022/05/01 04:18:08;;;;;;;19.65;11.80;;;3.90;99.90;;;;;;4923921;29;20054;-81
2022/05/01 04:20:35;;;;;;;19.33;10.73;;;3.90;99.90;;;;;;4939913;29;20077;-80
2022/05/01 04:23:03;;;;;;;21.90;11.07;;;3.90;99.90;;;;;;4940021;29;20396;-80
2022/05/01 04:25:30;;;;;;;20.48;11.73;;;4.00;99.90;;;;;;4956933;29;20047;-81
2022/05/01 04:28:01;;;;;;;18.65;11.48;;;4.00;99.90;;;;;;4957294;29;20399;-82
2022/05/01 04:30:27;;;;;;;18.40;11.13;;;3.90;99.90;;;;;;4939852;29;20054;-82
2022/05/01 04:32:58;;;;;;;19.75;11.30;;;3.90;99.90;;;;;;4939791;29;20047;-81
2022/05/01 04:35:40;;;;;;;19.35;12.05;;;3.90;99.90;;;;;;4923621;29;20043;-82
2022/05/01 04:38:12;;;;;;;21.58;11.98;;;3.90;99.90;;;;;;4957217;29;20046;-82
2022/05/01 04:40:40;;;;;;;22.60;12.95;;;3.80;99.90;;;;;;4957012;29;20047;-82
2022/05/01 04:43:09;;;;;;;22.35;13.13;;;3.90;99.90;;;;;;4939294;29;20051;-83
2022/05/01 04:45:37;;;;;;;22.08;11.88;;;3.90;99.90;;;;;;4939878;29;20509;-82
2022/05/01 04:48:04;;;;;;;24.98;12.60;;;3.90;99.90;;;;;;4939674;29;20047;-82
2022/05/01 04:50:29;;;;;;;16.98;10.40;;;3.90;99.90;;;;;;4939580;29;20125;-82
2022/05/01 04:52:55;;;;;;;16.10;10.02;;;4.00;99.90;;;;;;4923610;29;20123;-81
2022/05/01 04:55:21;;;;;;;16.33;10.45;;;4.00;99.90;;;;;;4939668;29;20458;-82
2022/05/01 04:57:47;;;;;;;17.13;10.73;;;4.00;99.90;;;;;;4939377;29;20114;-81
2022/05/01 05:00:19;;;;;;;19.08;11.10;;;4.00;99.90;;;;;;4939567;29;20435;-79
2022/05/01 05:02:48;;;;;;;16.27;10.18;;;4.00;99.90;;;;;;4939302;29;20043;-81
2022/05/01 05:05:13;;;;;;;20.30;11.13;;;4.10;99.90;;;;;;4939009;29;20149;-82
2022/05/01 05:07:40;;;;;;;16.90;10.88;;;4.10;99.90;;;;;;4939461;29;20051;-82
2022/05/01 05:10:07;;;;;;;19.55;11.05;;;4.00;99.90;;;;;;4939217;29;20047;-82
2022/05/01 05:12:34;;;;;;;19.48;11.85;;;4.10;99.90;;;;;;4939093;29;20102;-82
2022/05/01 05:15:00;;;;;;;20.80;12.15;;;4.10;99.90;;;;;;4939162;29;20070;-82
2022/05/01 05:17:29;;;;;;;20.75;12.52;;;4.10;99.90;;;;;;4938386;29;20479;-82
2022/05/01 05:19:55;;;;;;;22.67;12.68;;;4.10;99.90;;;;;;4938897;29;20499;-81
2022/05/01 05:22:21;;;;;;;20.02;12.27;;;4.20;99.90;;;;;;4923229;29;20074;-80
2022/05/01 05:24:46;;;;;;;23.98;13.77;;;4.20;99.90;;;;;;4956014;29;20126;-80
2022/05/01 05:27:13;;;;;;;19.27;12.57;;;4.20;99.90;;;;;;4956628;29;20427;-80
2022/05/01 05:29:39;;;;;;;21.65;12.65;;;4.20;99.90;;;;;;4956296;29;20463;-82
2022/05/01 05:32:06;;;;;;;22.15;12.80;;;4.30;99.90;;;;;;4938640;29;20043;-82
2022/05/01 05:34:31;;;;;;;21.20;12.85;;;4.30;99.90;;;;;;4938533;29;20142;-83
2022/05/01 05:36:58;;;;;;;20.30;12.90;;;4.40;99.90;;;;;;4955933;29;20462;-81
2022/05/01 05:39:24;;;;;;;23.15;12.90;;;4.40;99.90;;;;;;4938490;29;20134;-82
2022/05/01 05:41:50;;;;;;;24.17;14.20;;;4.40;99.90;;;;;;4938782;29;20077;-82
2022/05/01 05:44:15;;;;;;;26.67;15.45;;;4.50;99.90;;;;;;4922746;29;20039;-82
2022/05/01 05:46:41;;;;;;;28.45;16.45;;;4.60;99.90;;;;;;4956330;29;20047;-82
2022/05/01 05:49:06;;;;;;;29.38;15.88;;;4.60;99.90;;;;;;4938772;29;20090;-82
2022/05/01 05:51:32;;;;;;;26.83;16.52;;;4.60;99.90;;;;;;4938435;29;20122;-81
2022/05/01 05:53:58;;;;;;;27.50;16.52;;;4.70;99.90;;;;;;4938540;29;20403;-82
2022/05/01 05:56:24;;;;;;;31.17;17.55;;;4.70;99.90;;;;;;4938600;29;20149;-83
2022/05/01 05:58:50;;;;;;;28.27;16.73;;;4.80;99.90;;;;;;4955697;29;20078;-82
2022/05/01 06:01:16;;;;;;;30.23;16.70;;;4.90;99.90;;;;;;4955454;29;20042;-83
2022/05/01 06:03:42;;;;;;;26.90;15.75;;;5.00;99.90;;;;;;4938527;29;20039;-82
2022/05/01 06:06:08;;;;;;;27.55;15.68;;;5.00;99.90;;;;;;4955623;29;20054;-82
2022/05/01 06:08:38;;;;;;;36.00;18.33;;;5.10;99.90;;;;;;4938628;29;20070;-81
2022/05/01 06:11:04;;;;;;;28.67;16.30;;;5.20;99.90;;;;;;4938408;29;20118;-79
2022/05/01 06:13:30;;;;;;;27.30;14.85;;;5.30;99.90;;;;;;4938821;29;20407;-82
2022/05/01 06:15:56;;;;;;;26.35;15.23;;;5.40;99.90;;;;;;4938666;29;20097;-81
2022/05/01 06:18:22;;;;;;;26.75;14.88;;;5.40;99.90;;;;;;4938492;29;20043;-81
2022/05/01 06:20:48;;;;;;;25.27;14.32;;;5.50;99.90;;;;;;4938428;29;20530;-83
2022/05/01 06:23:14;;;;;;;24.08;14.85;;;5.60;99.90;;;;;;4939245;29;20097;-81
2022/05/01 06:25:43;;;;;;;27.13;15.90;;;5.70;99.90;;;;;;4938442;29;20043;-81
2022/05/01 06:28:09;;;;;;;26.73;14.82;;;5.80;99.90;;;;;;4956701;28;20507;-81
2022/05/01 06:30:37;;;;;;;25.23;15.80;;;5.90;99.90;;;;;;4959348;29;20046;-81
2022/05/01 06:33:03;;;;;;;25.13;16.02;;;6.00;99.90;;;;;;4925945;29;20043;-82
2022/05/01 06:35:31;;;;;;;26.80;16.00;;;6.10;99.90;;;;;;4942231;29;20511;-81
2022/05/01 06:37:58;;;;;;;23.00;14.95;;;6.20;99.90;;;;;;4942111;29;20126;-82
2022/05/01 06:40:24;;;;;;;22.73;15.75;;;6.30;99.90;;;;;;4960170;29;20114;-81
2022/05/01 06:42:49;;;;;;;24.52;15.75;;;6.30;99.90;;;;;;4959438;29;20085;-80
2022/05/01 06:45:15;;;;;;;25.38;14.60;;;6.50;99.90;;;;;;4941598;29;20102;-82
2022/05/01 06:47:41;;;;;;;25.77;15.55;;;6.60;99.90;;;;;;4941789;29;20110;-83
2022/05/01 06:50:06;;;;;;;23.17;14.30;;;6.70;99.90;;;;;;4941867;29;20055;-83
2022/05/01 06:52:32;;;;;;;22.23;14.60;;;6.80;99.90;;;;;;4941858;29;20403;-82
2022/05/01 06:54:59;;;;;;;22.42;14.00;;;6.90;99.90;;;;;;4941606;29;20039;-82
2022/05/01 06:57:26;;;;;;;21.15;13.77;;;7.00;99.90;;;;;;4941995;29;20058;-82
2022/05/01 06:59:52;;;;;;;21.85;13.15;;;7.20;99.90;;;;;;4959535;29;20054;-83
2022/05/01 07:02:17;;;;;;;20.60;12.98;;;7.30;99.90;;;;;;4926091;29;20392;-83
2022/05/01 07:04:43;;;;;;;20.98;12.48;;;7.40;99.90;;;;;;4941514;29;20042;-82
2022/05/01 07:07:09;;;;;;;18.08;10.98;;;7.50;99.90;;;;;;4941355;29;20043;-82
2022/05/01 07:09:35;;;;;;;18.40;11.27;;;7.50;99.90;;;;;;4941839;29;20047;-83
2022/05/01 07:12:01;;;;;;;18.13;11.38;;;7.60;99.90;;;;;;4941423;29;20098;-83
2022/05/01 07:14:26;;;;;;;21.50;11.82;;;7.70;99.90;;;;;;4942469;29;20043;-83
2022/05/01 07:16:52;;;;;;;18.92;11.77;;;7.80;99.90;;;;;;4942243;29;20077;-83
2022/05/01 07:19:17;;;;;;;20.20;12.23;;;7.80;99.90;;;;;;4941527;29;20377;-82
2022/05/01 07:21:43;;;;;;;18.52;12.38;;;7.90;99.90;;;;;;4958611;29;20175;-82
2022/05/01 07:24:09;;;;;;;19.08;12.27;;;7.90;99.90;;;;;;4941351;29;20035;-82
2022/05/01 07:26:35;;;;;;;17.90;11.32;;;8.00;99.90;;;;;;4941351;29;20097;-81
2022/05/01 07:29:01;;;;;;;17.60;10.43;;;8.10;99.90;;;;;;4941220;29;20051;-81
2022/05/01 07:31:27;;;;;;;14.43;9.43;;;8.10;99.90;;;;;;4940927;29;20122;-82
2022/05/01 07:33:52;;;;;;;18.77;10.80;;;8.20;99.90;;;;;;4958310;29;20511;-82
2022/05/01 07:36:22;;;;;;;15.13;9.88;;;8.30;99.90;;;;;;4941436;29;20122;-82
2022/05/01 07:38:49;;;;;;;14.30;9.18;;;8.30;99.90;;;;;;4941146;29;20118;-82
2022/05/01 07:41:16;;;;;;;16.08;10.38;;;8.40;99.90;;;;;;4940129;29;20166;-83
2022/05/01 07:43:43;;;;;;;14.30;9.02;;;8.50;99.90;;;;;;4958503;29;20035;-80
2022/05/01 07:46:09;;;;;;;14.48;8.60;;;8.60;99.90;;;;;;4941094;29;20043;-82
2022/05/01 07:48:34;;;;;;;11.55;7.32;;;8.70;99.90;;;;;;4941819;29;20043;-83
2022/05/01 07:51:00;;;;;;;11.77;7.90;;;8.70;99.90;;;;;;4941216;29;20043;-82
2022/05/01 07:53:26;;;;;;;13.20;9.43;;;8.80;99.90;;;;;;4941541;29;20069;-82
2022/05/01 07:55:51;;;;;;;13.07;7.30;;;8.90;99.90;;;;;;4940930;29;20049;-82
2022/05/01 07:58:19;;;;;;;12.27;7.78;;;9.00;99.90;;;;;;4958290;29;20369;-83
2022/05/01 08:00:45;;;;;;;12.30;6.63;;;9.10;99.90;;;;;;4941035;29;20122;-83
2022/05/01 08:05:54;;;;;;;7.97;4.78;;;9.30;99.90;;;;;;4958834;29;20055;-82
2022/05/01 08:08:20;;;;;;;7.78;4.80;;;9.40;99.90;;;;;;4940328;29;20126;-82
2022/05/01 08:10:47;;;;;;;8.02;5.22;;;9.50;99.90;;;;;;4940873;29;20043;-81
2022/05/01 08:13:12;;;;;;;8.95;5.50;;;9.60;99.90;;;;;;4958181;29;20044;-83
2022/05/01 08:15:38;;;;;;;9.63;5.97;;;9.60;99.90;;;;;;4940503;29;20043;-83
2022/05/01 08:21:07;;;;;;;9.43;5.63;;;9.80;99.90;;;;;;4940512;29;20039;-82
2022/05/01 08:23:34;;;;;;;10.48;5.40;;;10.00;99.90;;;;;;4940292;29;20048;-82
2022/05/01 08:26:03;;;;;;;7.78;5.05;;;10.40;99.90;;;;;;4940408;29;20047;-82
2022/05/01 08:28:30;;;;;;;9.23;5.38;;;11.10;99.90;;;;;;4957842;29;20066;-83
2022/05/01 08:30:55;;;;;;;8.75;5.60;;;11.80;99.90;;;;;;4940509;29;20451;-83
2022/05/01 08:33:21;;;;;;;9.70;5.40;;;12.70;99.90;;;;;;4940861;29;20126;-83
2022/05/01 08:35:47;;;;;;;8.27;5.32;;;13.40;99.90;;;;;;4940594;29;20058;-82
2022/05/01 08:38:12;;;;;;;8.85;5.32;;;14.10;99.90;;;;;;4940170;29;20126;-83
2022/05/01 08:40:38;;;;;;;9.77;5.50;;;14.60;99.90;;;;;;4957351;29;20102;-83
2022/05/01 08:43:05;;;;;;;7.25;4.75;;;15.10;99.90;;;;;;4940270;29;20055;-83
2022/05/01 08:45:45;;;;;;;8.18;4.15;;;15.20;99.90;;;;;;4940414;29;20049;-83
2022/05/01 08:48:24;;;;;;;6.90;4.47;;;14.90;99.90;;;;;;4957404;29;20047;-83
2022/05/01 08:50:52;;;;;;;8.27;4.80;;;14.60;99.90;;;;;;4956808;29;20078;-83
2022/05/01 08:53:18;;;;;;;7.50;4.22;;;14.60;99.90;;;;;;4938793;28;20047;-82
2022/05/01 08:55:45;;;;;;;7.57;3.83;;;14.30;99.90;;;;;;4957278;29;20479;-82
2022/05/01 08:58:12;;;;;;;7.57;4.20;;;14.10;99.90;;;;;;4940027;29;20122;-81
2022/05/01 09:00:38;;;;;;;8.13;3.80;;;13.90;99.90;;;;;;4940090;29;20444;-83
2022/05/01 09:03:06;;;;;;;6.38;3.60;;;13.70;99.90;;;;;;4957778;29;20031;-82
2022/05/01 09:05:32;;;;;;;6.43;4.07;;;13.70;99.90;;;;;;4957240;29;20058;-82
2022/05/01 09:07:57;;;;;;;6.82;4.03;;;13.70;99.90;;;;;;4939276;29;20043;-81
2022/05/01 09:10:26;;;;;;;7.50;4.38;;;13.90;99.90;;;;;;4938736;29;20163;-82
2022/05/01 09:12:53;;;;;;;7.00;3.90;;;13.80;99.90;;;;;;4956060;29;20480;-83
2022/05/01 09:15:30;;;;;;;5.90;3.80;;;13.80;99.90;;;;;;4939172;29;20415;-84
2022/05/01 09:18:16;;;;;;;9.55;3.95;;;13.60;99.90;;;;;;4956229;29;20066;-83
2022/05/01 09:21:00;;;;;;;;;;;13.60;99.90;;;;;;4939752;29;20113;-82
2022/05/01 09:23:40;;;;;;;7.47;4.30;;;13.60;99.90;;;;;;4939120;29;19919;-83
2022/05/01 09:26:08;;;;;;;8.23;4.30;;;13.70;99.90;;;;;;4957234;29;20098;-83
2022/05/01 09:28:35;;;;;;;7.13;4.22;;;13.80;99.90;;;;;;4939062;29;20055;-83
2022/05/01 09:31:03;;;;;;;6.82;4.20;;;13.90;99.90;;;;;;4938738;29;20047;-83
2022/05/01 09:33:29;;;;;;;6.53;3.97;;;14.00;99.90;;;;;;4956151;29;20074;-82
2022/05/01 09:35:55;;;;;;;5.65;3.80;;;14.20;99.90;;;;;;4938522;29;20371;-84
2022/05/01 09:38:23;;;;;;;5.72;3.67;;;14.20;99.90;;;;;;4955950;29;20098;-83
2022/05/01 09:40:54;;;;;;;7.03;4.00;;;14.20;99.90;;;;;;4938405;29;20047;-86
2022/05/01 09:43:36;;;;;;;7.75;3.83;;;14.20;99.90;;;;;;4940073;29;20043;-84
2022/05/01 09:46:12;;;;;;;6.40;4.20;;;14.10;99.90;;;;;;4955546;29;20062;-83
2022/05/01 09:48:39;;;;;;;9.18;4.22;;;13.80;99.90;;;;;;4955750;29;20094;-83
2022/05/01 09:51:19;;;;;;;6.22;3.75;;;13.70;99.90;;;;;;4922652;29;20066;-82
2022/05/01 09:53:46;;;;;;;5.30;3.85;;;13.60;99.90;;;;;;4956385;29;20458;-83
2022/05/01 09:56:12;;;;;;;6.05;4.03;;;13.50;99.90;;;;;;4938787;29;20047;-82
2022/05/01 09:58:40;;;;;;;6.55;3.67;;;13.60;99.90;;;;;;4938618;29;20464;-80
2022/05/01 10:01:24;;;;;;;7.47;3.85;;;13.70;99.90;;;;;;4955219;29;20519;-81
2022/05/01 10:03:52;;;;;;;6.85;3.72;;;13.80;99.90;;;;;;4940209;29;20075;-82
2022/05/01 10:06:18;;;;;;;5.55;3.50;;;13.70;99.90;;;;;;4942349;29;20047;-81
2022/05/01 10:08:45;;;;;;;6.22;3.60;;;13.80;99.90;;;;;;4926772;29;20563;-84
2022/05/01 10:11:14;;;;;;;6.75;3.40;;;14.00;99.90;;;;;;4926608;29;20174;-85
2022/05/01 10:13:40;;;;;;;4.28;3.00;;;14.20;99.90;;;;;;4942861;29;20054;-82
2022/05/01 10:16:09;;;;;;;5.53;3.25;;;14.30;99.90;;;;;;4960488;29;20059;-83
2022/05/01 10:18:36;;;;;;;5.30;3.10;;;14.40;99.90;;;;;;4927927;29;20039;-83
2022/05/01 10:21:03;;;;;;;5.72;2.83;;;14.70;99.90;;;;;;4960207;29;20129;-83
2022/05/01 10:23:29;;;;;;;7.78;3.90;;;14.80;99.90;;;;;;4942890;29;20185;-81
2022/05/01 10:26:30;;;;;;;7.88;3.47;;;14.60;99.90;;;;;;4942211;29;20043;-80
2022/05/01 10:29:33;;;;;;;7.28;3.30;;;14.30;99.90;;;;;;4909075;29;20062;-82
2022/05/01 10:32:21;;;;;;;5.22;3.10;;;14.40;99.90;;;;;;4942671;29;20492;-82
2022/05/01 10:35:05;;;;;;;5.15;3.13;;;14.40;99.90;;;;;;4943116;29;20047;-82
2022/05/01 10:37:59;;;;;;;4.63;2.90;;;14.30;99.90;;;;;;4923827;29;20043;-83
2022/05/01 10:40:37;;;;;;;4.95;3.10;;;14.20;99.90;;;;;;4934063;29;20107;-84
2022/05/01 10:43:25;;;;;;;7.13;3.50;;;14.00;99.90;;;;;;4939488;29;20043;-83
2022/05/01 10:45:53;;;;;;;6.22;3.45;;;13.90;99.90;;;;;;4940812;29;20053;-82
2022/05/01 10:48:31;;;;;;;6.25;2.97;;;13.80;99.90;;;;;;4943063;29;20475;-83
2022/05/01 10:51:38;;;;;;;7.38;3.60;;;13.70;99.90;;;;;;4942743;29;20396;-83
2022/05/01 10:54:10;;;;;;;5.03;3.38;;;13.60;99.90;;;;;;4910480;29;20061;-83
2022/05/01 10:56:37;;;;;;;6.45;3.30;;;13.80;99.90;;;;;;4941730;29;20055;-82
2022/05/01 10:59:34;;;;;;;4.88;2.83;;;14.00;99.90;;;;;;4942014;29;20078;-83
2022/05/01 11:02:03;;;;;;;6.63;2.70;;;14.10;99.90;;;;;;4941924;29;20051;-80
2022/05/01 11:04:41;;;;;;;5.28;2.90;;;14.20;99.90;;;;;;4941715;29;20491;-84
2022/05/01 11:07:13;;;;;;;6.78;2.75;;;14.60;99.90;;;;;;4959859;29;20043;-82
2022/05/01 11:09:47;;;;;;;4.85;2.92;;;15.00;99.90;;;;;;4944612;29;20054;-84
2022/05/01 11:12:22;;;;;;;5.20;3.40;;;15.70;99.90;;;;;;4947979;29;20412;-82
2022/05/01 11:14:55;;;;;;;7.87;3.33;;;15.90;98.30;;;;;;4952789;29;20047;-81
2022/05/01 11:17:36;;;;;;;4.97;3.22;;;16.10;98.80;;;;;;4960699;29;20082;-82
2022/05/01 11:20:13;;;;;;;7.18;3.40;;;16.10;96.10;;;;;;4961193;29;20099;-81
2022/05/01 11:22:40;;;;;;;5.78;2.80;;;15.80;95.10;;;;;;4945488;29;20039;-83
2022/05/01 11:25:10;;;;;;;4.53;2.72;;;15.60;95.60;;;;;;4959579;29;20082;-82
2022/05/01 11:27:53;;;;;;;5.75;2.60;;;15.40;94.00;;;;;;4941269;29;20436;-83
2022/05/01 11:30:29;;;;;;;6.53;2.63;;;15.10;94.90;;;;;;4926149;29;20043;-82
2022/05/01 11:33:08;;;;;;;3.70;2.65;;;14.90;95.80;;;;;;4941911;29;20061;-82
2022/05/01 11:35:56;;;;;;;5.05;3.03;;;15.00;97.10;;;;;;4941775;29;20062;-82
2022/05/01 11:38:40;;;;;;;5.40;3.25;;;14.70;95.10;;;;;;4926174;29;20039;-82
2022/05/01 11:41:07;;;;;;;5.38;3.00;;;14.50;96.00;;;;;;4959260;29;20043;-84
2022/05/01 11:43:35;;;;;;;4.93;2.90;;;14.30;97.00;;;;;;4942093;29;20035;-82
2022/05/01 11:46:02;;;;;;;4.95;3.30;;;14.30;98.00;;;;;;4941725;29;20047;-83
2022/05/01 11:48:28;;;;;;;4.45;2.70;;;14.30;97.50;;;;;;4941688;29;20411;-83
2022/05/01 11:50:58;;;;;;;6.90;3.85;;;14.40;98.30;;;;;;4926034;29;20388;-82
2022/05/01 11:53:25;;;;;;;6.28;3.40;;;14.30;99.00;;;;;;4941181;29;20055;-79
2022/05/01 12:04:26;;;;;;;4.57;3.20;;;14.40;99.70;;;;;;4941906;29;20043;-83
2022/05/01 12:07:06;;;;;;;7.70;3.35;;;14.50;99.90;;;;;;4941206;29;20514;-82
2022/05/01 12:09:40;;;;;;;6.68;3.72;;;14.60;99.90;;;;;;4941074;29;20083;-82
2022/05/01 12:12:09;;;;;;;8.60;3.63;;;15.00;99.90;;;;;;4940883;29;20424;-82
2022/05/01 12:14:35;;;;;;;6.05;3.50;;;15.40;99.90;;;;;;4941303;29;20061;-82
2022/05/01 12:17:00;;;;;;;4.57;3.15;;;15.80;99.20;;;;;;4958225;29;20517;-84
2022/05/01 12:19:37;;;;;;;8.15;3.83;;;16.00;98.10;;;;;;4939993;29;20043;-83
2022/05/01 12:22:03;;;;;;;5.68;3.55;;;16.20;96.00;;;;;;4940003;29;20043;-84
2022/05/01 12:24:29;;;;;;;5.93;3.70;;;16.10;95.60;;;;;;4937123;29;20075;-84
2022/05/01 12:26:56;;;;;;;5.95;3.40;;;16.20;95.70;;;;;;4957614;28;20046;-82
2022/05/01 12:29:22;;;;;;;6.25;3.03;;;16.10;95.80;;;;;;4940126;29;20051;-80
2022/05/01 12:32:07;;;;;;;9.43;3.65;;;16.10;96.20;;;;;;4939836;29;20122;-81
2022/05/01 12:34:39;;;;;;;5.67;3.70;;;16.00;97.00;;;;;;4940465;29;20126;-82
2022/05/01 12:37:13;;;;;;;5.13;3.50;;;16.00;97.30;;;;;;4940025;29;20311;-82
2022/05/01 12:39:39;;;;;;;5.45;3.42;;;15.90;97.20;;;;;;4924151;29;20054;-81
2022/05/01 12:45:17;;;;;;;6.88;3.97;;;15.70;96.70;;;;;;4940597;29;20103;-81
2022/05/01 12:47:45;;;;;;;5.70;3.92;;;15.50;96.40;;;;;;4924637;29;20050;-84
2022/05/01 12:50:37;;;;;;;5.20;3.35;;;15.30;96.60;;;;;;4940531;29;20043;-84
2022/05/01 12:53:21;;;;;;;7.20;3.78;;;14.90;96.40;;;;;;4939798;29;20044;-83
2022/05/01 12:55:47;;;;;;;6.38;3.70;;;14.80;97.10;;;;;;4957117;29;20093;-83
2022/05/01 12:58:12;;;;;;;6.57;3.92;;;14.80;97.50;;;;;;4939455;29;20070;-84
2022/05/01 13:00:39;;;;;;;5.45;3.40;;;14.90;98.10;;;;;;4923939;29;20472;-84
2022/05/01 13:03:17;;;;;;;6.88;3.70;;;15.00;98.30;;;;;;4939608;29;20079;-87
2022/05/01 13:05:53;;;;;;;8.95;3.70;;;15.30;97.30;;;;;;4939392;29;20492;-85
2022/05/01 13:08:20;;;;;;;6.55;3.70;;;15.80;98.00;;;;;;4956375;29;20054;-82
2022/05/01 13:11:24;;;;;;;4.88;3.22;;;16.40;97.00;;;;;;4956831;29;20484;-82
2022/05/01 13:14:01;;;;;;;4.80;3.25;;;17.00;93.90;;;;;;4952242;29;20109;-83
2022/05/01 13:16:30;;;;;;;6.25;3.92;;;17.30;93.10;;;;;;4923274;29;20400;-83
2022/05/01 13:19:01;;;;;;;5.90;3.50;;;17.60;92.00;;;;;;4923457;29;20039;-83
2022/05/01 13:21:31;;;;;;;4.97;3.42;;;17.90;89.40;;;;;;4956049;29;20479;-83
2022/05/01 13:24:23;;;;;;;5.72;3.03;;;18.00;87.00;;;;;;4923031;29;20050;-83
2022/05/01 13:26:49;;;;;;;5.97;3.00;;;18.20;85.10;;;;;;4938634;29;20050;-83
2022/05/01 13:29:15;;;;;;;6.38;3.33;;;18.20;82.00;;;;;;4938380;29;20047;-82
2022/05/01 13:31:42;;;;;;;5.50;3.50;;;17.90;81.50;;;;;;4923086;29;20047;-83
2022/05/01 13:34:09;;;;;;;5.45;3.10;;;17.60;83.10;;;;;;4939471;29;20114;-83
2022/05/01 13:36:35;;;;;;;5.28;3.00;;;17.40;83.70;;;;;;4956745;29;20051;-84
2022/05/01 13:39:03;;;;;;;4.43;2.97;;;17.20;84.20;;;;;;4922610;29;20035;-82
2022/05/01 13:46:59;;;;;;;5.95;2.90;;;17.00;84.60;;;;;;4938611;29;20055;-83
2022/05/01 13:49:25;;;;;;;6.47;3.10;;;16.90;84.80;;;;;;4923231;29;20098;-81
2022/05/01 13:51:52;;;;;;;5.45;2.85;;;17.00;84.10;;;;;;4938603;29;20066;-85
2022/05/01 13:54:18;;;;;;;4.82;2.75;;;17.40;83.90;;;;;;4938222;29;20047;-81
2022/05/01 13:56:47;;;;;;;5.72;3.40;;;17.60;83.70;;;;;;4938008;29;20039;-83
2022/05/01 13:59:14;;;;;;;5.43;2.78;;;17.90;81.60;;;;;;4922269;29;20104;-85
2022/05/01 14:01:40;;;;;;;5.88;3.42;;;18.00;80.80;;;;;;4938352;29;20047;-84
2022/05/01 14:04:06;;;;;;;5.55;2.97;;;18.00;80.30;;;;;;4956037;29;20039;-83
2022/05/01 14:06:32;;;;;;;7.50;3.10;;;17.90;80.20;;;;;;4938442;29;20039;-83
2022/05/01 14:08:58;;;;;;;6.05;3.38;;;17.60;78.50;;;;;;4938718;29;20090;-81
2022/05/01 14:11:26;;;;;;;5.80;3.30;;;17.30;76.70;;;;;;4938296;29;20082;-86
2022/05/01 14:13:53;;;;;;;5.63;3.30;;;16.90;78.90;;;;;;4939119;29;20039;-87
2022/05/01 14:16:19;;;;;;;5.10;3.35;;;16.90;79.90;;;;;;4938880;29;20050;-84
2022/05/01 14:18:46;;;;;;;6.45;3.15;;;17.10;82.30;;;;;;4938274;29;20039;-83
2022/05/01 14:21:17;;;;;;;5.28;3.38;;;17.30;81.10;;;;;;4923183;29;20071;-81
2022/05/01 14:23:44;;;;;;;8.43;3.60;;;17.80;77.30;;;;;;4938884;29;20051;-84
2022/05/01 14:26:10;;;;;;;4.10;3.00;;;17.90;77.30;;;;;;4938617;29;20050;-83
2022/05/01 14:28:38;;;;;;;5.30;2.83;;;18.10;75.10;;;;;;4938785;29;20059;-83
2022/05/01 14:31:39;;;;;;;3.83;3.10;;;18.30;76.50;;;;;;4956044;29;20051;-83
2022/05/01 14:34:15;;;;;;;5.22;3.08;;;18.20;72.10;;;;;;4925922;29;20432;-83
2022/05/01 14:36:44;;;;;;;4.82;3.17;;;18.10;74.20;;;;;;4937819;29;20500;-80
2022/05/01 14:39:11;;;;;;;5.40;3.00;;;17.80;73.40;;;;;;4937865;29;20170;-84
2022/05/01 14:41:51;;;;;;;4.78;2.85;;;17.60;74.90;;;;;;4955159;29;20043;-81
2022/05/01 14:44:59;;;;;;;5.43;2.70;;;17.60;75.80;;;;;;4955145;29;20036;-84
2022/05/01 14:47:28;;;;;;;5.28;3.10;;;17.40;73.80;;;;;;4937569;29;20130;-82
2022/05/01 14:50:02;;;;;;;4.43;2.75;;;17.30;76.00;;;;;;4956618;28;20086;-81
2022/05/01 14:52:31;;;;;;;4.45;2.90;;;17.10;77.20;;;;;;4941455;29;20086;-85
2022/05/01 14:55:00;;;;;;;5.93;2.85;;;17.10;77.20;;;;;;4941065;29;20130;-83
2022/05/01 14:57:26;;;;;;;5.45;3.30;;;16.90;79.00;;;;;;4941755;29;20043;-82
2022/05/01 15:08:30;;;;;;;4.07;2.40;;;16.70;77.60;;;;;;4941485;29;20468;-81
2022/05/01 15:10:57;;;;;;;6.07;2.72;;;16.80;78.30;;;;;;4940374;29;20050;-82
2022/05/01 15:13:23;;;;;;;5.75;2.97;;;16.80;79.80;;;;;;4957682;29;20082;-83
2022/05/01 15:16:15;;;;;;;5.53;2.90;;;16.80;79.60;;;;;;4940899;29;20059;-83
2022/05/01 15:19:10;;;;;;;4.75;2.97;;;16.80;79.70;;;;;;4925488;29;20039;-84
2022/05/01 15:24:38;;;;;;;4.50;2.80;;;16.70;80.90;;;;;;4922737;29;20130;-83
2022/05/01 15:27:08;;;;;;;6.50;3.10;;;16.60;81.60;;;;;;4952110;29;20047;-85
2022/05/01 15:29:47;;;;;;;4.85;2.90;;;16.60;81.80;;;;;;4922536;29;20465;-81
2022/05/01 15:32:29;;;;;;;5.28;2.65;;;16.50;82.20;;;;;;4922184;29;20504;-82
2022/05/01 15:34:58;;;;;;;4.30;2.92;;;16.50;83.30;;;;;;4939326;29;20124;-82
2022/05/01 15:37:30;;;;;;;4.13;3.00;;;16.40;83.10;;;;;;4922077;29;20047;-82
2022/05/01 15:40:05;;;;;;;4.07;2.65;;;16.40;82.90;;;;;;4937914;29;20039;-84
2022/05/01 15:42:40;;;;;;;4.13;2.70;;;16.20;82.60;;;;;;4940434;29;20051;-82
2022/05/01 15:45:06;;;;;;;6.55;2.78;;;16.00;84.10;;;;;;4938701;29;20035;-81
2022/05/01 15:47:33;;;;;;;4.72;2.85;;;16.00;84.10;;;;;;4941130;29;20098;-83
2022/05/01 15:55:39;;;;;;;4.07;2.97;;;15.80;84.40;;;;;;4940839;29;20423;-85
2022/05/01 15:58:06;;;;;;;4.82;2.20;;;15.80;83.50;;;;;;4941133;29;20042;-84
2022/05/01 16:00:32;;;;;;;6.85;2.83;;;15.70;83.10;;;;;;4924881;28;20480;-81
2022/05/01 16:02:59;;;;;;;5.00;2.90;;;15.60;83.80;;;;;;4940534;29;20043;-83
2022/05/01 16:05:26;;;;;;;4.22;2.80;;;15.70;83.80;;;;;;4957990;29;20047;-81
2022/05/01 16:08:22;;;;;;;4.38;2.28;;;15.60;83.20;;;;;;4924590;29;20054;-82
2022/05/01 16:10:56;;;;;;;6.88;3.00;;;15.70;84.20;;;;;;4941231;29;20043;-82
2022/05/01 16:13:56;;;;;;;4.45;2.40;;;15.80;83.00;;;;;;4941347;29;20081;-82
2022/05/01 16:16:57;;;;;;;6.20;2.95;;;15.70;83.60;;;;;;4941200;29;20101;-81
2022/05/01 16:19:39;;;;;;;8.45;3.35;;;15.70;85.00;;;;;;4940300;29;20126;-82
2022/05/01 16:22:06;;;;;;;6.15;3.22;;;15.60;84.70;;;;;;4957935;29;20047;-82
2022/05/01 16:24:58;;;;;;;5.95;3.30;;;15.60;85.40;;;;;;4940186;29;20069;-82
2022/05/01 16:27:29;;;;;;;4.57;2.70;;;15.60;87.30;;;;;;4940799;29;20541;-82
2022/05/01 16:30:04;;;;;;;6.68;2.85;;;15.50;87.20;;;;;;4940719;29;20055;-82
2022/05/01 16:32:48;;;;;;;5.25;3.17;;;15.50;85.80;;;;;;4940672;29;20082;-83
2022/05/01 16:35:18;;;;;;;6.75;3.58;;;15.30;85.10;;;;;;4940834;29;20039;-84
2022/05/01 16:37:48;;;;;;;6.50;3.47;;;15.30;86.30;;;;;;4925195;29;20571;-81
2022/05/01 16:40:17;;;;;;;4.95;3.20;;;15.20;86.70;;;;;;4940620;29;20043;-82
2022/05/01 16:42:43;;;;;;;3.88;2.78;;;15.20;87.60;;;;;;4957190;29;20035;-82
2022/05/01 16:45:11;;;;;;;5.70;3.17;;;15.20;87.90;;;;;;4937998;29;20039;-81
2022/05/01 16:47:38;;;;;;;6.95;3.40;;;15.20;88.00;;;;;;4938167;29;20066;-81
2022/05/01 16:50:09;;;;;;;5.60;3.17;;;15.00;88.10;;;;;;4955890;29;20039;-83
2022/05/01 16:52:38;;;;;;;5.35;3.28;;;15.00;88.40;;;;;;4937759;29;20054;-84
2022/05/01 16:55:05;;;;;;;4.68;3.10;;;15.00;88.60;;;;;;4925385;29;20126;-80
2022/05/01 16:57:36;;;;;;;5.78;3.17;;;14.90;89.10;;;;;;4950839;29;20384;-78
2022/05/01 17:00:04;;;;;;;5.07;3.15;;;14.70;89.20;;;;;;4949867;29;20091;-85
2022/05/01 17:02:52;;;;;;;5.63;3.80;;;14.70;89.20;;;;;;4939660;29;20100;-81
2022/05/01 17:05:33;;;;;;;5.13;3.38;;;14.70;90.00;;;;;;4939106;29;20547;-82
2022/05/01 17:08:04;;;;;;;6.68;3.42;;;14.60;90.70;;;;;;4919373;29;20491;-80
2022/05/01 17:10:46;;;;;;;5.57;2.67;;;14.50;91.10;;;;;;4921280;29;20553;-81
2022/05/01 17:13:38;;;;;;;5.55;3.30;;;14.50;91.30;;;;;;4937153;29;20144;-82
2022/05/01 17:16:11;;;;;;;6.68;3.28;;;14.40;92.20;;;;;;4939504;29;20083;-84
2022/05/01 17:18:52;;;;;;;6.40;3.78;;;14.40;92.20;;;;;;4939809;29;20487;-86
2022/05/01 17:21:28;;;;;;;9.27;2.97;;;14.60;92.90;;;;;;4957597;29;20135;-83
2022/05/01 17:23:54;;;;;;;;;;;14.80;92.80;;;;;;4959059;29;20035;-82
2022/05/01 17:26:36;;;;;;;7.93;2.83;;;15.20;92.80;;;;;;4940237;29;20013;-80
2022/05/01 17:29:10;;;;;;;6.55;3.08;;;15.50;91.60;;;;;;4940893;29;20098;-83
2022/05/01 17:31:42;;;;;;;5.10;2.88;;;15.40;90.30;;;;;;4924327;29;20488;-82
2022/05/01 17:34:11;;;;;;;4.45;2.78;;;15.30;90.80;;;;;;4924774;29;20100;-82
2022/05/01 17:36:39;;;;;;;4.68;2.67;;;15.10;90.70;;;;;;4939851;29;20051;-82
2022/05/01 17:39:05;;;;;;;4.22;2.90;;;15.10;91.10;;;;;;4957042;29;20035;-84
2022/05/01 17:41:34;;;;;;;4.90;2.97;;;15.00;91.00;;;;;;4939387;29;20043;-82
2022/05/01 17:44:01;;;;;;;5.10;3.80;;;14.90;91.50;;;;;;4939169;29;20048;-84